sensor_id;sensor_type;location;lat;lon;timestamp;P1;durP1;ratioP1;P2;durP2;ratioP2
43150;SDS011;28755;51.478;5.702;2023-09-08T00:02:24;12.50;;;6.70;;
43150;SDS011;28755;51.478;5.702;2023-09-08T00:04:53;13.43;;;6.78;;
43150;SDS011;28755;51.478;5.702;2023-09-08T00:07:19;12.13;;;7.07;;
43150;SDS011;28755;51.478;5.702;2023-09-08T00:09:45;36.80;;;23.77;;
43150;SDS011;28755;51.478;5.702;2023-09-08T00:12:10;14.52;;;9.63;;
43150;SDS011;28755;51.478;5.702;2023-09-08T00:14:36;17.95;;;9.48;;
43150;SDS011;28755;51.478;5.702;2023-09-08T00:17:02;15.80;;;9.32;;
43150;SDS011;28755;51.478;5.702;2023-09-08T00:19:27;14.68;;;8.75;;
43150;SDS011;28755;51.478;5.702;2023-09-08T00:21:53;9.77;;;7.28;;
43150;SDS011;28755;51.478;5.702;2023-09-08T00:24:18;10.32;;;6.50;;
43150;SDS011;28755;51.478;5.702;2023-09-08T00:26:44;12.50;;;7.10;;
43150;SDS011;28755;51.478;5.702;2023-09-08T00:29:10;11.55;;;7.57;;
43150;SDS011;28755;51.478;5.702;2023-09-08T00:31:35;14.93;;;7.20;;
43150;SDS011;28755;51.478;5.702;2023-09-08T00:34:01;7.97;;;6.40;;
43150;SDS011;28755;51.478;5.702;2023-09-08T00:36:26;7.97;;;6.75;;
43150;SDS011;28755;51.478;5.702;2023-09-08T00:38:52;10.93;;;6.85;;
43150;SDS011;28755;51.478;5.702;2023-09-08T00:41:17;10.55;;;7.05;;
43150;SDS011;28755;51.478;5.702;2023-09-08T00:43:43;10.32;;;6.75;;
43150;SDS011;28755;51.478;5.702;2023-09-08T00:46:09;9.80;;;6.72;;
43150;SDS011;28755;51.478;5.702;2023-09-08T00:48:36;12.32;;;6.95;;
43150;SDS011;28755;51.478;5.702;2023-09-08T00:51:03;8.73;;;6.63;;
43150;SDS011;28755;51.478;5.702;2023-09-08T00:53:30;11.65;;;7.20;;
43150;SDS011;28755;51.478;5.702;2023-09-08T00:55:56;12.45;;;6.63;;
43150;SDS011;28755;51.478;5.702;2023-09-08T00:58:23;8.48;;;6.47;;
43150;SDS011;28755;51.478;5.702;2023-09-08T01:00:49;12.65;;;7.32;;
43150;SDS011;28755;51.478;5.702;2023-09-08T01:03:15;10.82;;;6.88;;
43150;SDS011;28755;51.478;5.702;2023-09-08T01:05:40;12.27;;;6.90;;
43150;SDS011;28755;51.478;5.702;2023-09-08T01:08:06;10.98;;;7.40;;
43150;SDS011;28755;51.478;5.702;2023-09-08T01:10:32;10.63;;;7.00;;
43150;SDS011;28755;51.478;5.702;2023-09-08T01:12:58;8.90;;;6.65;;
43150;SDS011;28755;51.478;5.702;2023-09-08T01:15:24;9.88;;;7.40;;
43150;SDS011;28755;51.478;5.702;2023-09-08T01:17:49;12.95;;;7.28;;
43150;SDS011;28755;51.478;5.702;2023-09-08T01:20:17;14.05;;;7.82;;
43150;SDS011;28755;51.478;5.702;2023-09-08T01:25:59;12.30;;;7.35;;
43150;SDS011;28755;51.478;5.702;2023-09-08T01:28:34;13.10;;;7.13;;
43150;SDS011;28755;51.478;5.702;2023-09-08T01:31:02;11.05;;;7.20;;
43150;SDS011;28755;51.478;5.702;2023-09-08T01:33:27;10.45;;;7.30;;
43150;SDS011;28755;51.478;5.702;2023-09-08T01:35:53;9.50;;;7.60;;
43150;SDS011;28755;51.478;5.702;2023-09-08T01:38:20;10.23;;;7.75;;
43150;SDS011;28755;51.478;5.702;2023-09-08T01:40:46;12.52;;;7.57;;
43150;SDS011;28755;51.478;5.702;2023-09-08T01:43:12;8.70;;;7.60;;
43150;SDS011;28755;51.478;5.702;2023-09-08T01:45:37;11.20;;;8.10;;
43150;SDS011;28755;51.478;5.702;2023-09-08T01:48:03;10.52;;;7.43;;
43150;SDS011;28755;51.478;5.702;2023-09-08T01:50:29;8.75;;;7.10;;
43150;SDS011;28755;51.478;5.702;2023-09-08T01:52:54;10.32;;;7.88;;
43150;SDS011;28755;51.478;5.702;2023-09-08T01:55:20;10.70;;;8.32;;
43150;SDS011;28755;51.478;5.702;2023-09-08T01:57:45;11.85;;;8.25;;
43150;SDS011;28755;51.478;5.702;2023-09-08T02:00:11;12.60;;;8.52;;
43150;SDS011;28755;51.478;5.702;2023-09-08T02:02:37;12.68;;;8.77;;
43150;SDS011;28755;51.478;5.702;2023-09-08T02:05:03;13.75;;;8.75;;
43150;SDS011;28755;51.478;5.702;2023-09-08T02:07:29;11.07;;;8.60;;
43150;SDS011;28755;51.478;5.702;2023-09-08T02:09:56;13.15;;;9.35;;
43150;SDS011;28755;51.478;5.702;2023-09-08T02:12:21;14.00;;;9.02;;
43150;SDS011;28755;51.478;5.702;2023-09-08T02:14:47;13.60;;;8.57;;
43150;SDS011;28755;51.478;5.702;2023-09-08T02:17:13;12.95;;;8.75;;
43150;SDS011;28755;51.478;5.702;2023-09-08T02:19:38;11.45;;;9.07;;
43150;SDS011;28755;51.478;5.702;2023-09-08T02:22:04;12.00;;;9.00;;
43150;SDS011;28755;51.478;5.702;2023-09-08T02:24:29;11.88;;;9.23;;
43150;SDS011;28755;51.478;5.702;2023-09-08T02:26:55;17.25;;;9.00;;
43150;SDS011;28755;51.478;5.702;2023-09-08T02:29:20;12.18;;;8.80;;
43150;SDS011;28755;51.478;5.702;2023-09-08T02:31:47;18.38;;;9.43;;
43150;SDS011;28755;51.478;5.702;2023-09-08T02:34:13;14.13;;;9.32;;
43150;SDS011;28755;51.478;5.702;2023-09-08T02:36:38;13.02;;;9.30;;
43150;SDS011;28755;51.478;5.702;2023-09-08T02:39:04;12.40;;;9.52;;
43150;SDS011;28755;51.478;5.702;2023-09-08T02:41:30;14.13;;;9.00;;
43150;SDS011;28755;51.478;5.702;2023-09-08T02:43:55;12.50;;;8.98;;
43150;SDS011;28755;51.478;5.702;2023-09-08T02:46:21;12.20;;;9.82;;
43150;SDS011;28755;51.478;5.702;2023-09-08T02:48:47;13.55;;;9.38;;
43150;SDS011;28755;51.478;5.702;2023-09-08T02:51:12;15.23;;;9.85;;
43150;SDS011;28755;51.478;5.702;2023-09-08T02:53:38;16.55;;;9.90;;
43150;SDS011;28755;51.478;5.702;2023-09-08T02:56:04;11.13;;;9.30;;
43150;SDS011;28755;51.478;5.702;2023-09-08T02:58:30;14.85;;;9.85;;
43150;SDS011;28755;51.478;5.702;2023-09-08T03:01:12;14.32;;;9.88;;
43150;SDS011;28755;51.478;5.702;2023-09-08T03:03:45;14.25;;;9.82;;
43150;SDS011;28755;51.478;5.702;2023-09-08T03:06:11;12.95;;;9.88;;
43150;SDS011;28755;51.478;5.702;2023-09-08T03:08:38;13.23;;;10.20;;
43150;SDS011;28755;51.478;5.702;2023-09-08T03:11:04;13.85;;;10.32;;
43150;SDS011;28755;51.478;5.702;2023-09-08T03:13:33;17.02;;;10.52;;
43150;SDS011;28755;51.478;5.702;2023-09-08T03:16:06;15.93;;;10.18;;
43150;SDS011;28755;51.478;5.702;2023-09-08T03:18:33;15.15;;;9.88;;
43150;SDS011;28755;51.478;5.702;2023-09-08T03:20:59;14.50;;;10.90;;
43150;SDS011;28755;51.478;5.702;2023-09-08T03:23:34;15.50;;;10.38;;
43150;SDS011;28755;51.478;5.702;2023-09-08T03:26:01;11.65;;;9.75;;
43150;SDS011;28755;51.478;5.702;2023-09-08T03:28:27;14.63;;;10.13;;
43150;SDS011;28755;51.478;5.702;2023-09-08T03:30:52;11.73;;;9.50;;
43150;SDS011;28755;51.478;5.702;2023-09-08T03:33:18;15.10;;;10.45;;
43150;SDS011;28755;51.478;5.702;2023-09-08T03:35:43;18.23;;;10.70;;
43150;SDS011;28755;51.478;5.702;2023-09-08T03:38:09;14.70;;;10.60;;
43150;SDS011;28755;51.478;5.702;2023-09-08T03:40:35;12.95;;;10.18;;
43150;SDS011;28755;51.478;5.702;2023-09-08T03:43:01;16.42;;;10.60;;
43150;SDS011;28755;51.478;5.702;2023-09-08T03:45:26;14.20;;;10.50;;
43150;SDS011;28755;51.478;5.702;2023-09-08T03:47:52;17.05;;;11.48;;
43150;SDS011;28755;51.478;5.702;2023-09-08T03:50:17;15.35;;;11.50;;
43150;SDS011;28755;51.478;5.702;2023-09-08T03:52:43;16.23;;;11.02;;
43150;SDS011;28755;51.478;5.702;2023-09-08T03:55:08;18.25;;;11.93;;
43150;SDS011;28755;51.478;5.702;2023-09-08T03:57:34;15.00;;;10.90;;
43150;SDS011;28755;51.478;5.702;2023-09-08T03:59:59;13.68;;;10.70;;
43150;SDS011;28755;51.478;5.702;2023-09-08T04:02:25;14.18;;;10.85;;
43150;SDS011;28755;51.478;5.702;2023-09-08T04:04:51;18.70;;;11.30;;
43150;SDS011;28755;51.478;5.702;2023-09-08T04:07:16;13.18;;;10.00;;
43150;SDS011;28755;51.478;5.702;2023-09-08T04:09:42;11.98;;;10.50;;
43150;SDS011;28755;51.478;5.702;2023-09-08T04:12:07;11.43;;;9.82;;
43150;SDS011;28755;51.478;5.702;2023-09-08T04:14:34;15.70;;;10.88;;
43150;SDS011;28755;51.478;5.702;2023-09-08T04:17:01;19.40;;;10.52;;
43150;SDS011;28755;51.478;5.702;2023-09-08T04:19:27;15.70;;;10.02;;
43150;SDS011;28755;51.478;5.702;2023-09-08T04:21:52;14.95;;;10.60;;
43150;SDS011;28755;51.478;5.702;2023-09-08T04:24:18;14.05;;;10.15;;
43150;SDS011;28755;51.478;5.702;2023-09-08T04:26:45;12.10;;;9.73;;
43150;SDS011;28755;51.478;5.702;2023-09-08T04:29:10;14.88;;;10.38;;
43150;SDS011;28755;51.478;5.702;2023-09-08T04:31:36;13.90;;;10.57;;
43150;SDS011;28755;51.478;5.702;2023-09-08T04:34:02;15.25;;;10.52;;
43150;SDS011;28755;51.478;5.702;2023-09-08T04:36:27;16.17;;;10.60;;
43150;SDS011;28755;51.478;5.702;2023-09-08T04:38:55;20.25;;;11.80;;
43150;SDS011;28755;51.478;5.702;2023-09-08T04:41:21;17.85;;;11.40;;
43150;SDS011;28755;51.478;5.702;2023-09-08T04:43:46;14.23;;;10.50;;
43150;SDS011;28755;51.478;5.702;2023-09-08T04:46:12;13.90;;;10.20;;
43150;SDS011;28755;51.478;5.702;2023-09-08T04:48:38;17.65;;;11.27;;
43150;SDS011;28755;51.478;5.702;2023-09-08T04:51:03;14.10;;;10.90;;
43150;SDS011;28755;51.478;5.702;2023-09-08T04:53:29;20.45;;;11.40;;
43150;SDS011;28755;51.478;5.702;2023-09-08T04:55:54;16.73;;;11.48;;
43150;SDS011;28755;51.478;5.702;2023-09-08T04:58:20;16.73;;;11.45;;
43150;SDS011;28755;51.478;5.702;2023-09-08T05:00:45;15.60;;;11.40;;
43150;SDS011;28755;51.478;5.702;2023-09-08T05:03:11;14.80;;;11.50;;
43150;SDS011;28755;51.478;5.702;2023-09-08T05:05:37;17.63;;;11.50;;
43150;SDS011;28755;51.478;5.702;2023-09-08T05:08:04;19.33;;;11.45;;
43150;SDS011;28755;51.478;5.702;2023-09-08T05:10:29;16.35;;;11.95;;
43150;SDS011;28755;51.478;5.702;2023-09-08T05:12:55;18.63;;;12.40;;
43150;SDS011;28755;51.478;5.702;2023-09-08T05:15:21;18.70;;;12.60;;
43150;SDS011;28755;51.478;5.702;2023-09-08T05:17:46;18.40;;;11.32;;
43150;SDS011;28755;51.478;5.702;2023-09-08T05:20:12;18.77;;;12.38;;
43150;SDS011;28755;51.478;5.702;2023-09-08T05:22:38;16.55;;;13.05;;
43150;SDS011;28755;51.478;5.702;2023-09-08T05:25:03;20.35;;;12.70;;
43150;SDS011;28755;51.478;5.702;2023-09-08T05:27:29;16.92;;;12.88;;
43150;SDS011;28755;51.478;5.702;2023-09-08T05:29:56;19.42;;;12.93;;
43150;SDS011;28755;51.478;5.702;2023-09-08T05:32:21;16.27;;;13.05;;
43150;SDS011;28755;51.478;5.702;2023-09-08T05:34:47;17.35;;;12.88;;
43150;SDS011;28755;51.478;5.702;2023-09-08T05:37:12;14.57;;;12.50;;
43150;SDS011;28755;51.478;5.702;2023-09-08T05:39:38;16.23;;;11.95;;
43150;SDS011;28755;51.478;5.702;2023-09-08T05:42:04;17.15;;;12.63;;
43150;SDS011;28755;51.478;5.702;2023-09-08T05:44:29;18.25;;;12.45;;
43150;SDS011;28755;51.478;5.702;2023-09-08T05:46:55;17.55;;;13.02;;
43150;SDS011;28755;51.478;5.702;2023-09-08T05:49:20;29.23;;;12.75;;
43150;SDS011;28755;51.478;5.702;2023-09-08T05:51:46;18.00;;;12.02;;
43150;SDS011;28755;51.478;5.702;2023-09-08T05:54:12;18.98;;;11.98;;
43150;SDS011;28755;51.478;5.702;2023-09-08T05:56:37;21.65;;;11.98;;
43150;SDS011;28755;51.478;5.702;2023-09-08T05:59:03;17.13;;;11.70;;
43150;SDS011;28755;51.478;5.702;2023-09-08T06:01:30;14.85;;;10.98;;
43150;SDS011;28755;51.478;5.702;2023-09-08T06:03:56;19.65;;;11.02;;
43150;SDS011;28755;51.478;5.702;2023-09-08T06:06:21;19.73;;;11.63;;
43150;SDS011;28755;51.478;5.702;2023-09-08T06:08:47;15.45;;;10.77;;
43150;SDS011;28755;51.478;5.702;2023-09-08T06:11:13;16.58;;;10.73;;
43150;SDS011;28755;51.478;5.702;2023-09-08T06:13:39;17.05;;;11.38;;
43150;SDS011;28755;51.478;5.702;2023-09-08T06:16:04;16.98;;;11.43;;
43150;SDS011;28755;51.478;5.702;2023-09-08T06:18:32;17.23;;;11.38;;
43150;SDS011;28755;51.478;5.702;2023-09-08T06:21:04;17.45;;;11.77;;
43150;SDS011;28755;51.478;5.702;2023-09-08T06:23:33;20.45;;;10.90;;
43150;SDS011;28755;51.478;5.702;2023-09-08T06:26:00;18.55;;;11.10;;
43150;SDS011;28755;51.478;5.702;2023-09-08T06:28:26;24.80;;;11.43;;
43150;SDS011;28755;51.478;5.702;2023-09-08T06:30:55;18.00;;;10.50;;
43150;SDS011;28755;51.478;5.702;2023-09-08T06:33:20;15.05;;;9.82;;
43150;SDS011;28755;51.478;5.702;2023-09-08T06:35:47;15.85;;;10.20;;
43150;SDS011;28755;51.478;5.702;2023-09-08T06:38:13;12.73;;;9.95;;
43150;SDS011;28755;51.478;5.702;2023-09-08T06:40:39;14.45;;;10.40;;
43150;SDS011;28755;51.478;5.702;2023-09-08T06:43:04;15.10;;;10.50;;
43150;SDS011;28755;51.478;5.702;2023-09-08T06:45:30;15.05;;;11.70;;
43150;SDS011;28755;51.478;5.702;2023-09-08T06:47:55;15.43;;;11.13;;
43150;SDS011;28755;51.478;5.702;2023-09-08T06:50:21;14.90;;;11.15;;
43150;SDS011;28755;51.478;5.702;2023-09-08T06:52:48;17.42;;;10.82;;
43150;SDS011;28755;51.478;5.702;2023-09-08T06:55:15;16.85;;;10.98;;
43150;SDS011;28755;51.478;5.702;2023-09-08T06:57:41;16.63;;;11.90;;
43150;SDS011;28755;51.478;5.702;2023-09-08T07:00:07;17.45;;;12.05;;
43150;SDS011;28755;51.478;5.702;2023-09-08T07:02:36;15.73;;;11.48;;
43150;SDS011;28755;51.478;5.702;2023-09-08T07:05:01;20.67;;;11.63;;
43150;SDS011;28755;51.478;5.702;2023-09-08T07:07:31;18.10;;;11.57;;
43150;SDS011;28755;51.478;5.702;2023-09-08T07:09:57;18.92;;;11.10;;
43150;SDS011;28755;51.478;5.702;2023-09-08T07:12:22;19.80;;;11.52;;
43150;SDS011;28755;51.478;5.702;2023-09-08T07:14:48;16.35;;;11.48;;
43150;SDS011;28755;51.478;5.702;2023-09-08T07:17:13;20.33;;;12.45;;
43150;SDS011;28755;51.478;5.702;2023-09-08T07:19:39;19.00;;;11.75;;
43150;SDS011;28755;51.478;5.702;2023-09-08T07:22:04;16.48;;;11.65;;
43150;SDS011;28755;51.478;5.702;2023-09-08T07:24:30;15.45;;;12.05;;
43150;SDS011;28755;51.478;5.702;2023-09-08T07:26:56;18.20;;;11.63;;
43150;SDS011;28755;51.478;5.702;2023-09-08T07:29:22;15.00;;;11.07;;
43150;SDS011;28755;51.478;5.702;2023-09-08T07:31:47;16.63;;;10.98;;
43150;SDS011;28755;51.478;5.702;2023-09-08T07:34:13;13.60;;;9.82;;
43150;SDS011;28755;51.478;5.702;2023-09-08T07:36:38;14.10;;;10.82;;
43150;SDS011;28755;51.478;5.702;2023-09-08T07:39:04;19.08;;;10.77;;
43150;SDS011;28755;51.478;5.702;2023-09-08T07:41:29;14.90;;;10.85;;
43150;SDS011;28755;51.478;5.702;2023-09-08T07:43:55;13.45;;;10.00;;
43150;SDS011;28755;51.478;5.702;2023-09-08T07:46:20;14.30;;;9.50;;
43150;SDS011;28755;51.478;5.702;2023-09-08T07:48:46;17.08;;;10.13;;
43150;SDS011;28755;51.478;5.702;2023-09-08T07:51:11;12.30;;;10.75;;
43150;SDS011;28755;51.478;5.702;2023-09-08T07:53:37;14.27;;;11.45;;
43150;SDS011;28755;51.478;5.702;2023-09-08T07:56:03;19.92;;;11.27;;
43150;SDS011;28755;51.478;5.702;2023-09-08T07:58:29;18.38;;;11.05;;
43150;SDS011;28755;51.478;5.702;2023-09-08T08:00:55;15.98;;;12.30;;
43150;SDS011;28755;51.478;5.702;2023-09-08T08:03:20;16.40;;;11.65;;
43150;SDS011;28755;51.478;5.702;2023-09-08T08:05:46;15.45;;;11.45;;
43150;SDS011;28755;51.478;5.702;2023-09-08T08:08:11;15.77;;;11.63;;
43150;SDS011;28755;51.478;5.702;2023-09-08T08:10:37;16.63;;;11.82;;
43150;SDS011;28755;51.478;5.702;2023-09-08T08:13:03;13.15;;;10.93;;
43150;SDS011;28755;51.478;5.702;2023-09-08T08:15:38;20.25;;;11.68;;
43150;SDS011;28755;51.478;5.702;2023-09-08T08:18:05;19.98;;;11.35;;
43150;SDS011;28755;51.478;5.702;2023-09-08T08:20:31;16.67;;;11.68;;
43150;SDS011;28755;51.478;5.702;2023-09-08T08:23:00;15.50;;;10.82;;
43150;SDS011;28755;51.478;5.702;2023-09-08T08:25:27;17.77;;;11.60;;
43150;SDS011;28755;51.478;5.702;2023-09-08T08:27:52;16.85;;;11.43;;
43150;SDS011;28755;51.478;5.702;2023-09-08T08:30:18;16.27;;;10.88;;
43150;SDS011;28755;51.478;5.702;2023-09-08T08:32:44;14.82;;;10.80;;
43150;SDS011;28755;51.478;5.702;2023-09-08T08:35:10;12.63;;;11.02;;
43150;SDS011;28755;51.478;5.702;2023-09-08T08:37:36;13.40;;;9.50;;
43150;SDS011;28755;51.478;5.702;2023-09-08T08:40:04;13.75;;;9.30;;
43150;SDS011;28755;51.478;5.702;2023-09-08T08:42:32;13.13;;;8.07;;
43150;SDS011;28755;51.478;5.702;2023-09-08T08:44:58;9.48;;;7.43;;
43150;SDS011;28755;51.478;5.702;2023-09-08T08:47:25;13.98;;;7.72;;
43150;SDS011;28755;51.478;5.702;2023-09-08T08:49:53;15.40;;;7.40;;
43150;SDS011;28755;51.478;5.702;2023-09-08T08:52:20;12.07;;;8.43;;
43150;SDS011;28755;51.478;5.702;2023-09-08T08:54:46;11.60;;;7.15;;
43150;SDS011;28755;51.478;5.702;2023-09-08T08:57:11;12.38;;;8.30;;
43150;SDS011;28755;51.478;5.702;2023-09-08T08:59:38;7.60;;;6.22;;
43150;SDS011;28755;51.478;5.702;2023-09-08T09:02:06;7.25;;;5.40;;
43150;SDS011;28755;51.478;5.702;2023-09-08T09:04:33;10.00;;;5.40;;
43150;SDS011;28755;51.478;5.702;2023-09-08T09:07:02;16.27;;;5.70;;
43150;SDS011;28755;51.478;5.702;2023-09-08T09:09:30;19.25;;;5.80;;
43150;SDS011;28755;51.478;5.702;2023-09-08T09:11:56;10.27;;;5.07;;
43150;SDS011;28755;51.478;5.702;2023-09-08T09:14:21;7.30;;;5.00;;
43150;SDS011;28755;51.478;5.702;2023-09-08T09:16:48;4.75;;;4.25;;
43150;SDS011;28755;51.478;5.702;2023-09-08T09:19:21;7.85;;;3.90;;
43150;SDS011;28755;51.478;5.702;2023-09-08T09:21:52;9.98;;;5.25;;
43150;SDS011;28755;51.478;5.702;2023-09-08T09:24:29;12.13;;;5.22;;
43150;SDS011;28755;51.478;5.702;2023-09-08T09:27:11;8.27;;;4.90;;
43150;SDS011;28755;51.478;5.702;2023-09-08T09:29:46;12.98;;;4.68;;
43150;SDS011;28755;51.478;5.702;2023-09-08T09:32:13;6.40;;;5.15;;
43150;SDS011;28755;51.478;5.702;2023-09-08T09:34:49;8.50;;;5.30;;
43150;SDS011;28755;51.478;5.702;2023-09-08T09:37:18;8.80;;;5.13;;
43150;SDS011;28755;51.478;5.702;2023-09-08T09:39:48;12.93;;;5.25;;
43150;SDS011;28755;51.478;5.702;2023-09-08T09:42:18;12.00;;;6.22;;
43150;SDS011;28755;51.478;5.702;2023-09-08T09:44:44;9.35;;;5.40;;
43150;SDS011;28755;51.478;5.702;2023-09-08T09:47:13;11.13;;;6.10;;
43150;SDS011;28755;51.478;5.702;2023-09-08T09:49:42;6.75;;;5.53;;
43150;SDS011;28755;51.478;5.702;2023-09-08T09:52:09;11.68;;;5.38;;
43150;SDS011;28755;51.478;5.702;2023-09-08T09:54:38;15.70;;;5.82;;
43150;SDS011;28755;51.478;5.702;2023-09-08T09:57:08;8.32;;;5.30;;
43150;SDS011;28755;51.478;5.702;2023-09-08T09:59:37;7.25;;;5.45;;
43150;SDS011;28755;51.478;5.702;2023-09-08T10:02:03;12.30;;;5.32;;
43150;SDS011;28755;51.478;5.702;2023-09-08T10:04:28;13.68;;;4.97;;
43150;SDS011;28755;51.478;5.702;2023-09-08T10:06:55;7.13;;;5.00;;
43150;SDS011;28755;51.478;5.702;2023-09-08T10:09:23;6.97;;;4.72;;
43150;SDS011;28755;51.478;5.702;2023-09-08T10:11:49;9.05;;;4.63;;
43150;SDS011;28755;51.478;5.702;2023-09-08T10:14:15;9.73;;;4.60;;
43150;SDS011;28755;51.478;5.702;2023-09-08T10:16:43;6.35;;;4.60;;
43150;SDS011;28755;51.478;5.702;2023-09-08T10:19:14;12.70;;;4.50;;
43150;SDS011;28755;51.478;5.702;2023-09-08T10:21:42;9.77;;;3.90;;
43150;SDS011;28755;51.478;5.702;2023-09-08T10:24:24;10.63;;;4.43;;
43150;SDS011;28755;51.478;5.702;2023-09-08T10:27:04;8.88;;;4.40;;
43150;SDS011;28755;51.478;5.702;2023-09-08T10:29:36;11.80;;;4.30;;
43150;SDS011;28755;51.478;5.702;2023-09-08T10:32:02;8.48;;;4.22;;
43150;SDS011;28755;51.478;5.702;2023-09-08T10:34:29;8.50;;;4.40;;
43150;SDS011;28755;51.478;5.702;2023-09-08T10:36:56;11.75;;;4.15;;
43150;SDS011;28755;51.478;5.702;2023-09-08T10:39:32;7.70;;;4.13;;
43150;SDS011;28755;51.478;5.702;2023-09-08T10:44:41;7.63;;;4.20;;
43150;SDS011;28755;51.478;5.702;2023-09-08T10:47:14;8.15;;;4.40;;
43150;SDS011;28755;51.478;5.702;2023-09-08T10:49:43;9.50;;;4.10;;
43150;SDS011;28755;51.478;5.702;2023-09-08T10:52:11;6.60;;;3.83;;
43150;SDS011;28755;51.478;5.702;2023-09-08T10:54:44;8.15;;;4.00;;
43150;SDS011;28755;51.478;5.702;2023-09-08T10:57:13;11.20;;;4.20;;
43150;SDS011;28755;51.478;5.702;2023-09-08T10:59:40;10.18;;;3.80;;
43150;SDS011;28755;51.478;5.702;2023-09-08T11:02:31;11.70;;;4.22;;
43150;SDS011;28755;51.478;5.702;2023-09-08T11:05:01;4.60;;;3.80;;
43150;SDS011;28755;51.478;5.702;2023-09-08T11:07:29;6.93;;;4.50;;
43150;SDS011;28755;51.478;5.702;2023-09-08T11:09:56;9.57;;;4.50;;
43150;SDS011;28755;51.478;5.702;2023-09-08T11:12:22;6.28;;;4.03;;
43150;SDS011;28755;51.478;5.702;2023-09-08T11:14:50;6.40;;;4.05;;
43150;SDS011;28755;51.478;5.702;2023-09-08T11:17:16;9.65;;;4.18;;
43150;SDS011;28755;51.478;5.702;2023-09-08T11:19:45;9.20;;;3.85;;
43150;SDS011;28755;51.478;5.702;2023-09-08T11:22:15;14.23;;;4.28;;
43150;SDS011;28755;51.478;5.702;2023-09-08T11:24:42;9.30;;;4.10;;
43150;SDS011;28755;51.478;5.702;2023-09-08T11:27:08;5.80;;;3.80;;
43150;SDS011;28755;51.478;5.702;2023-09-08T11:29:34;9.05;;;4.07;;
43150;SDS011;28755;51.478;5.702;2023-09-08T11:32:01;5.65;;;3.55;;
43150;SDS011;28755;51.478;5.702;2023-09-08T11:34:28;10.40;;;3.42;;
43150;SDS011;28755;51.478;5.702;2023-09-08T11:36:54;12.90;;;3.72;;
43150;SDS011;28755;51.478;5.702;2023-09-08T11:39:22;11.55;;;3.63;;
43150;SDS011;28755;51.478;5.702;2023-09-08T11:41:49;7.97;;;3.95;;
43150;SDS011;28755;51.478;5.702;2023-09-08T11:44:17;9.07;;;3.97;;
43150;SDS011;28755;51.478;5.702;2023-09-08T11:46:43;7.15;;;3.83;;
43150;SDS011;28755;51.478;5.702;2023-09-08T11:49:09;8.20;;;3.70;;
43150;SDS011;28755;51.478;5.702;2023-09-08T11:51:34;10.02;;;4.30;;
43150;SDS011;28755;51.478;5.702;2023-09-08T11:54:00;7.88;;;3.47;;
43150;SDS011;28755;51.478;5.702;2023-09-08T11:56:26;8.13;;;3.60;;
43150;SDS011;28755;51.478;5.702;2023-09-08T11:58:52;7.00;;;3.67;;
43150;SDS011;28755;51.478;5.702;2023-09-08T12:01:18;6.53;;;3.90;;
43150;SDS011;28755;51.478;5.702;2023-09-08T12:03:51;7.88;;;3.83;;
43150;SDS011;28755;51.478;5.702;2023-09-08T12:06:17;4.97;;;3.92;;
43150;SDS011;28755;51.478;5.702;2023-09-08T12:08:43;7.10;;;3.60;;
43150;SDS011;28755;51.478;5.702;2023-09-08T12:11:10;8.85;;;3.80;;
43150;SDS011;28755;51.478;5.702;2023-09-08T12:13:36;5.88;;;3.50;;
43150;SDS011;28755;51.478;5.702;2023-09-08T12:16:01;6.90;;;3.80;;
43150;SDS011;28755;51.478;5.702;2023-09-08T12:18:39;7.85;;;3.63;;
43150;SDS011;28755;51.478;5.702;2023-09-08T12:21:05;11.35;;;3.90;;
43150;SDS011;28755;51.478;5.702;2023-09-08T12:23:31;8.23;;;3.75;;
43150;SDS011;28755;51.478;5.702;2023-09-08T12:25:57;8.90;;;3.40;;
43150;SDS011;28755;51.478;5.702;2023-09-08T12:28:23;7.72;;;3.10;;
43150;SDS011;28755;51.478;5.702;2023-09-08T12:30:55;4.40;;;3.10;;
43150;SDS011;28755;51.478;5.702;2023-09-08T12:33:20;5.13;;;3.30;;
43150;SDS011;28755;51.478;5.702;2023-09-08T12:35:46;7.57;;;3.40;;
43150;SDS011;28755;51.478;5.702;2023-09-08T12:38:16;5.93;;;3.22;;
43150;SDS011;28755;51.478;5.702;2023-09-08T12:40:41;10.98;;;4.07;;
43150;SDS011;28755;51.478;5.702;2023-09-08T12:43:07;12.95;;;3.60;;
43150;SDS011;28755;51.478;5.702;2023-09-08T12:45:32;13.82;;;3.85;;
43150;SDS011;28755;51.478;5.702;2023-09-08T12:47:59;7.53;;;3.20;;
43150;SDS011;28755;51.478;5.702;2023-09-08T12:50:26;5.65;;;4.10;;
43150;SDS011;28755;51.478;5.702;2023-09-08T12:52:52;9.38;;;4.10;;
43150;SDS011;28755;51.478;5.702;2023-09-08T12:55:18;6.88;;;4.00;;
43150;SDS011;28755;51.478;5.702;2023-09-08T12:57:44;9.32;;;4.30;;
43150;SDS011;28755;51.478;5.702;2023-09-08T13:00:10;9.10;;;4.32;;
43150;SDS011;28755;51.478;5.702;2023-09-08T13:02:36;10.95;;;4.38;;
43150;SDS011;28755;51.478;5.702;2023-09-08T13:05:02;5.93;;;4.30;;
43150;SDS011;28755;51.478;5.702;2023-09-08T13:07:28;10.68;;;4.22;;
43150;SDS011;28755;51.478;5.702;2023-09-08T13:09:54;7.75;;;4.25;;
43150;SDS011;28755;51.478;5.702;2023-09-08T13:12:19;9.85;;;4.20;;
43150;SDS011;28755;51.478;5.702;2023-09-08T13:14:45;9.05;;;4.28;;
43150;SDS011;28755;51.478;5.702;2023-09-08T13:17:11;7.00;;;4.35;;
43150;SDS011;28755;51.478;5.702;2023-09-08T13:19:37;6.80;;;4.18;;
43150;SDS011;28755;51.478;5.702;2023-09-08T13:22:06;7.75;;;4.28;;
43150;SDS011;28755;51.478;5.702;2023-09-08T13:24:31;9.63;;;4.43;;
43150;SDS011;28755;51.478;5.702;2023-09-08T13:26:58;10.30;;;4.70;;
43150;SDS011;28755;51.478;5.702;2023-09-08T13:29:25;11.52;;;4.60;;
43150;SDS011;28755;51.478;5.702;2023-09-08T13:31:52;8.90;;;4.75;;
43150;SDS011;28755;51.478;5.702;2023-09-08T13:34:17;6.25;;;4.47;;
43150;SDS011;28755;51.478;5.702;2023-09-08T13:36:43;13.52;;;5.10;;
43150;SDS011;28755;51.478;5.702;2023-09-08T13:39:08;8.60;;;4.38;;
43150;SDS011;28755;51.478;5.702;2023-09-08T13:41:49;9.70;;;4.40;;
43150;SDS011;28755;51.478;5.702;2023-09-08T13:44:20;10.93;;;4.68;;
43150;SDS011;28755;51.478;5.702;2023-09-08T13:46:47;6.55;;;4.07;;
43150;SDS011;28755;51.478;5.702;2023-09-08T13:49:14;8.90;;;4.13;;
43150;SDS011;28755;51.478;5.702;2023-09-08T13:51:39;9.27;;;4.30;;
43150;SDS011;28755;51.478;5.702;2023-09-08T13:54:05;6.88;;;4.45;;
43150;SDS011;28755;51.478;5.702;2023-09-08T13:56:31;7.93;;;4.82;;
43150;SDS011;28755;51.478;5.702;2023-09-08T13:58:57;9.88;;;4.60;;
43150;SDS011;28755;51.478;5.702;2023-09-08T14:01:23;9.13;;;4.55;;
43150;SDS011;28755;51.478;5.702;2023-09-08T14:03:48;6.90;;;4.38;;
43150;SDS011;28755;51.478;5.702;2023-09-08T14:06:17;9.63;;;4.72;;
43150;SDS011;28755;51.478;5.702;2023-09-08T14:08:43;7.93;;;4.30;;
43150;SDS011;28755;51.478;5.702;2023-09-08T14:11:09;8.50;;;4.10;;
43150;SDS011;28755;51.478;5.702;2023-09-08T14:13:35;10.15;;;4.43;;
43150;SDS011;28755;51.478;5.702;2023-09-08T14:16:00;7.68;;;4.68;;
43150;SDS011;28755;51.478;5.702;2023-09-08T14:18:26;8.52;;;4.53;;
43150;SDS011;28755;51.478;5.702;2023-09-08T14:20:51;8.77;;;4.50;;
43150;SDS011;28755;51.478;5.702;2023-09-08T14:23:18;12.27;;;5.20;;
43150;SDS011;28755;51.478;5.702;2023-09-08T14:25:44;11.88;;;5.13;;
43150;SDS011;28755;51.478;5.702;2023-09-08T14:28:09;8.00;;;4.80;;
43150;SDS011;28755;51.478;5.702;2023-09-08T14:30:35;8.88;;;5.05;;
43150;SDS011;28755;51.478;5.702;2023-09-08T14:33:00;9.25;;;4.68;;
43150;SDS011;28755;51.478;5.702;2023-09-08T14:35:26;8.20;;;4.55;;
43150;SDS011;28755;51.478;5.702;2023-09-08T14:37:52;9.82;;;4.55;;